Time;durP1;ratioP1;P1;durP2;ratioP2;P2;SDS_P1;SDS_P2;PMS_P1;PMS_P2;Temp;Humidity;BMP_temperature;BMP_pressure;BME280_temperature;BME280_humidity;BME280_pressure;Samples;Min_cycle;Max_cycle;Signal;HPM_P1;HPM_P2
2022/04/17 00:01:38;;;;;;;5.43;3.50;;;26.90;96.80;;;;;;5046315;28;20740;-74
2022/04/17 00:04:07;;;;;;;8.50;3.92;;;27.00;97.00;;;;;;5042906;28;20033;-74
2022/04/17 00:06:34;;;;;;;5.57;4.20;;;27.20;97.10;;;;;;5049820;28;21333;-75
2022/04/17 00:09:02;;;;;;;6.43;4.57;;;27.60;97.10;;;;;;5063449;28;20043;-74
2022/04/17 00:11:29;;;;;;;6.90;3.58;;;27.90;95.40;;;;;;5066035;28;20037;-74
2022/04/17 00:13:58;;;;;;;4.13;3.55;;;27.60;96.00;;;;;;5050962;28;20104;-71
2022/04/17 00:16:26;;;;;;;7.82;3.50;;;27.70;96.30;;;;;;5049875;28;20589;-71
2022/04/17 00:18:54;;;;;;;2.85;2.00;;;28.00;95.50;;;;;;5051671;28;20112;-74
2022/04/17 00:21:22;;;;;;;4.03;3.05;;;28.10;94.70;;;;;;5041535;28;20037;-73
2022/04/17 00:23:50;;;;;;;4.13;3.10;;;28.00;94.60;;;;;;5039019;28;20029;-73
2022/04/17 00:26:19;;;;;;;3.53;2.35;;;27.80;94.90;;;;;;5044507;28;20484;-72
2022/04/17 00:28:46;;;;;;;3.28;2.67;;;27.70;95.70;;;;;;5031099;28;20344;-74
2022/04/17 00:31:13;;;;;;;3.50;2.28;;;28.20;94.80;;;;;;5050574;28;20021;-74
2022/04/17 00:33:41;;;;;;;2.88;2.00;;;28.60;95.10;;;;;;5032029;28;20124;-72
2022/04/17 00:36:08;;;;;;;4.40;2.85;;;29.00;95.40;;;;;;5044914;28;20018;-74
2022/04/17 00:38:35;;;;;;;3.00;2.42;;;29.40;93.60;;;;;;5044633;28;20033;-74
2022/04/17 00:41:03;;;;;;;3.67;2.53;;;29.70;93.90;;;;;;5037588;28;20059;-72
2022/04/17 00:43:34;;;;;;;2.22;1.90;;;29.70;92.90;;;;;;5035823;28;20051;-74
2022/04/17 00:46:01;;;;;;;1.75;1.20;;;29.80;92.70;;;;;;5035566;28;20463;-74
2022/04/17 00:48:29;;;;;;;4.47;2.15;;;30.30;91.20;;;;;;5048492;28;20036;-74
2022/04/17 00:50:58;;;;;;;3.75;1.67;;;30.40;91.50;;;;;;5045428;28;20029;-73
2022/04/17 00:53:27;;;;;;;1.45;1.20;;;30.30;91.50;;;;;;5043069;28;20121;-73
2022/04/17 00:55:55;;;;;;;1.77;1.30;;;30.30;90.80;;;;;;5035726;28;20032;-73
2022/04/17 00:58:23;;;;;;;2.88;1.30;;;30.50;90.60;;;;;;5044554;28;20401;-72
2022/04/17 01:00:51;;;;;;;1.10;0.80;;;30.40;90.50;;;;;;5038409;28;20029;-76
2022/04/17 01:03:18;;;;;;;1.30;0.57;;;30.30;90.60;;;;;;5041193;28;20021;-74
2022/04/17 01:05:46;;;;;;;1.48;0.80;;;30.20;89.20;;;;;;5036893;28;20445;-74
2022/04/17 01:08:15;;;;;;;0.35;0.30;;;30.00;90.70;;;;;;5033352;28;20041;-75
2022/04/17 01:10:42;;;;;;;1.20;0.35;;;29.80;87.30;;;;;;5032506;28;20498;-75
2022/04/17 01:13:10;;;;;;;1.17;0.47;;;29.50;88.40;;;;;;5030085;28;20032;-75
2022/04/17 01:15:38;;;;;;;0.80;0.60;;;29.40;89.90;;;;;;5048254;28;20360;-73
2022/04/17 01:18:05;;;;;;;2.88;0.55;;;29.40;90.10;;;;;;5034501;28;20125;-75
2022/04/17 01:20:33;;;;;;;1.23;0.30;;;29.70;90.00;;;;;;5033217;28;20456;-75
2022/04/17 01:28:31;;;;;;;2.28;0.20;;;29.90;87.60;;;;;;5030738;28;20135;-75
2022/04/17 01:30:59;;;;;;;0.50;0.20;;;30.00;86.40;;;;;;5036746;28;20035;-71
2022/04/17 01:33:29;;;;;;;0.50;0.30;;;29.70;86.80;;;;;;5032064;28;22445;-75
2022/04/17 01:35:57;;;;;;;1.00;0.50;;;29.60;88.90;;;;;;5033003;28;20880;-73
2022/04/17 01:38:24;;;;;;;4.82;0.60;;;29.60;87.50;;;;;;5032346;28;20055;-74
2022/04/17 01:40:51;;;;;;;0.40;0.30;;;29.50;88.90;;;;;;5032990;28;20021;-74
2022/04/17 01:43:19;;;;;;;0.45;0.28;;;29.60;89.10;;;;;;5032173;28;20052;-75
2022/04/17 01:45:46;;;;;;;0.93;0.20;;;29.10;88.50;;;;;;5032244;28;20068;-74
2022/04/17 01:48:13;;;;;;;0.40;0.20;;;29.50;89.40;;;;;;5033910;28;20073;-74
2022/04/17 01:50:41;;;;;;;0.63;0.20;;;29.30;88.00;;;;;;5034644;28;21976;-76
2022/04/17 01:53:08;;;;;;;0.40;0.20;;;29.20;87.50;;;;;;5033436;28;20041;-75
2022/04/17 01:55:35;;;;;;;1.02;0.30;;;28.90;88.10;;;;;;5032063;28;20018;-77
2022/04/17 01:58:03;;;;;;;0.95;0.15;;;28.80;90.40;;;;;;5030308;28;20040;-75
2022/04/17 02:00:30;;;;;;;0.65;0.30;;;28.80;87.70;;;;;;5034120;28;20025;-75
2022/04/17 02:02:57;;;;;;;0.40;0.20;;;29.00;87.90;;;;;;5033263;28;20032;-75
2022/04/17 02:05:25;;;;;;;2.75;0.30;;;28.80;86.70;;;;;;5030658;28;20030;-75
2022/04/17 02:07:52;;;;;;;0.30;0.20;;;28.30;87.40;;;;;;5031770;28;20045;-74
2022/04/17 02:10:21;;;;;;;0.47;0.20;;;28.30;88.50;;;;;;5045044;28;20819;-75
2022/04/17 02:12:49;;;;;;;2.05;0.28;;;28.40;88.40;;;;;;5034462;28;20066;-75
2022/04/17 02:15:16;;;;;;;0.35;0.20;;;28.60;88.50;;;;;;5032019;28;20037;-73
2022/04/17 02:17:43;;;;;;;1.13;0.30;;;28.70;89.20;;;;;;5041017;28;20052;-74
2022/04/17 02:20:12;;;;;;;0.70;0.30;;;28.10;88.50;;;;;;5032435;28;20071;-73
2022/04/17 02:22:40;;;;;;;0.28;0.20;;;27.80;89.70;;;;;;5034309;28;20024;-74
2022/04/17 02:25:08;;;;;;;0.70;0.28;;;28.00;90.60;;;;;;5038061;28;20131;-74
2022/04/17 02:27:35;;;;;;;0.20;0.17;;;28.00;90.00;;;;;;5035254;28;20033;-74
2022/04/17 02:30:05;;;;;;;0.52;0.20;;;28.10;88.40;;;;;;5034332;28;20028;-75
2022/04/17 02:32:32;;;;;;;1.27;0.30;;;28.20;88.70;;;;;;5036531;28;20578;-73
2022/04/17 02:34:59;;;;;;;0.57;0.30;;;28.20;90.10;;;;;;5034405;28;20025;-74
2022/04/17 02:37:28;;;;;;;0.57;0.30;;;28.50;88.20;;;;;;5034609;28;20124;-73
2022/04/17 02:39:57;;;;;;;1.08;0.25;;;28.20;90.00;;;;;;5037005;28;20031;-75
2022/04/17 02:42:24;;;;;;;0.77;0.20;;;28.70;90.30;;;;;;5034897;28;20057;-76
2022/04/17 02:44:52;;;;;;;1.48;0.20;;;28.70;88.80;;;;;;5035088;28;20490;-75
2022/04/17 02:50:04;;;;;;;0.40;0.25;;;27.90;87.20;;;;;;5037718;28;20040;-75
2022/04/17 02:52:32;;;;;;;0.40;0.22;;;28.00;89.30;;;;;;5036096;28;20041;-75
2022/04/17 02:55:00;;;;;;;1.15;0.20;;;28.30;86.90;;;;;;5034432;28;20072;-73
2022/04/17 02:57:28;;;;;;;0.20;0.20;;;28.50;88.40;;;;;;5036410;28;20033;-74
2022/04/17 02:59:55;;;;;;;1.02;0.10;;;28.80;87.40;;;;;;5044059;28;20060;-74
2022/04/17 03:07:55;;;;;;;0.98;0.30;;;28.70;87.90;;;;;;5036618;28;20056;-74
2022/04/17 03:10:22;;;;;;;0.45;0.20;;;28.50;86.90;;;;;;5037194;28;20029;-73
2022/04/17 03:12:50;;;;;;;0.90;0.52;;;28.20;86.90;;;;;;5036490;28;20119;-74
2022/04/17 03:15:17;;;;;;;0.47;0.20;;;28.10;87.20;;;;;;5036965;28;20028;-76
2022/04/17 03:17:44;;;;;;;0.20;0.10;;;27.90;88.00;;;;;;5035450;28;20083;-76
2022/04/17 03:20:12;;;;;;;1.23;0.40;;;28.10;87.70;;;;;;5039456;28;20170;-76
2022/04/17 03:22:45;;;;;;;0.75;0.20;;;28.30;88.70;;;;;;5038438;28;20391;-75
2022/04/17 03:25:13;;;;;;;2.67;0.30;;;28.00;86.60;;;;;;5036124;28;20171;-74
2022/04/17 03:27:43;;;;;;;0.52;0.32;;;27.90;87.20;;;;;;5035805;28;20045;-72
2022/04/17 03:30:10;;;;;;;0.38;0.15;;;27.90;86.50;;;;;;5038555;28;20052;-73
2022/04/17 03:32:38;;;;;;;0.80;0.30;;;27.70;87.50;;;;;;5034366;28;20080;-74
2022/04/17 03:35:06;;;;;;;1.38;0.20;;;28.10;87.00;;;;;;5035241;28;20369;-72
2022/04/17 03:37:33;;;;;;;1.67;0.43;;;28.20;88.70;;;;;;5036926;28;20029;-73
2022/04/17 03:40:01;;;;;;;0.20;0.10;;;28.20;87.80;;;;;;5035478;28;20112;-72
2022/04/17 03:42:28;;;;;;;0.63;0.10;;;28.10;87.30;;;;;;5033521;28;20033;-73
2022/04/17 03:44:56;;;;;;;0.55;0.30;;;27.70;87.60;;;;;;5033208;28;20069;-73
2022/04/17 03:47:23;;;;;;;1.00;0.40;;;27.60;89.40;;;;;;5049527;28;20033;-72
2022/04/17 03:49:50;;;;;;;1.20;0.15;;;27.40;89.70;;;;;;5036209;28;20088;-74
2022/04/17 03:52:18;;;;;;;0.52;0.30;;;27.50;88.30;;;;;;5032718;28;20035;-73
2022/04/17 03:54:45;;;;;;;0.50;0.22;;;27.60;88.20;;;;;;5033950;28;20049;-74
2022/04/17 03:57:12;;;;;;;0.30;0.22;;;27.80;86.70;;;;;;5035596;28;20036;-72
2022/04/17 03:59:40;;;;;;;0.63;0.20;;;27.70;87.40;;;;;;5038406;28;20524;-73
2022/04/17 04:02:07;;;;;;;0.80;0.10;;;27.70;87.60;;;;;;5034093;28;20403;-73
2022/04/17 04:04:35;;;;;;;1.13;0.17;;;27.70;88.10;;;;;;5042899;28;20589;-71
2022/04/17 04:07:03;;;;;;;0.73;0.20;;;27.60;87.50;;;;;;5032440;28;20052;-71
2022/04/17 04:09:30;;;;;;;0.52;0.30;;;27.70;88.00;;;;;;5035798;28;20044;-73
2022/04/17 04:11:57;;;;;;;1.30;0.20;;;27.40;86.20;;;;;;5032034;28;20028;-72
2022/04/17 04:14:25;;;;;;;0.40;0.20;;;27.30;87.00;;;;;;5032611;28;20035;-73
2022/04/17 04:16:53;;;;;;;0.10;0.05;;;27.30;87.00;;;;;;5033706;28;20056;-73
2022/04/17 04:19:20;;;;;;;0.75;0.20;;;27.60;87.60;;;;;;5032573;28;20112;-73
2022/04/17 04:21:47;;;;;;;0.85;0.30;;;27.70;87.30;;;;;;5034612;28;20092;-73
2022/04/17 04:24:18;;;;;;;0.55;0.20;;;27.80;85.60;;;;;;5037416;28;20096;-72
2022/04/17 04:28:32;;;;;;;0.28;0.13;;;27.70;86.20;;;;;;5046504;28;20048;-72
2022/04/17 04:29:34;;;;;;;0.40;0.10;;;27.70;85.90;;;;;;5036067;28;20124;-74
2022/04/17 04:32:01;;;;;;;0.25;0.10;;;27.70;86.80;;;;;;5034734;28;20036;-72
2022/04/17 04:34:29;;;;;;;0.43;0.10;;;27.70;85.70;;;;;;5035324;28;20025;-74
2022/04/17 04:36:56;;;;;;;1.20;0.20;;;27.40;86.20;;;;;;5041179;28;20126;-74
2022/04/17 04:39:24;;;;;;;0.20;0.10;;;27.30;85.50;;;;;;5037025;28;20119;-73
2022/04/17 04:41:51;;;;;;;0.43;0.20;;;27.10;85.50;;;;;;5032609;28;20096;-74
2022/04/17 04:44:18;;;;;;;1.05;0.93;;;26.90;87.30;;;;;;5034494;28;20074;-73
2022/04/17 04:46:45;;;;;;;0.75;0.30;;;26.80;86.90;;;;;;5032887;28;20529;-74
2022/04/17 04:49:31;;;;;;;0.50;0.13;;;26.70;88.20;;;;;;5041206;28;20040;-73
2022/04/17 04:52:03;;;;;;;0.28;0.20;;;26.80;87.60;;;;;;5043557;28;20621;-75
2022/04/17 04:54:32;;;;;;;0.55;0.50;;;26.80;87.70;;;;;;5033704;28;20041;-72
2022/04/17 04:57:00;;;;;;;1.85;0.17;;;26.80;86.50;;;;;;5035515;28;20037;-73
2022/04/17 04:59:27;;;;;;;0.40;0.20;;;26.80;86.10;;;;;;5034422;28;20043;-72
2022/04/17 05:01:55;;;;;;;1.02;0.20;;;26.70;86.90;;;;;;5032288;28;20115;-73
2022/04/17 05:04:23;;;;;;;0.52;0.52;;;26.70;87.20;;;;;;5030962;28;20033;-72
2022/04/17 05:06:50;;;;;;;0.47;0.20;;;26.70;86.40;;;;;;5032779;28;20928;-73
2022/04/17 05:09:17;;;;;;;0.47;0.30;;;26.40;86.40;;;;;;5033473;28;20049;-72
2022/04/17 05:11:46;;;;;;;0.10;0.10;;;26.20;87.00;;;;;;5030886;28;20029;-72
2022/04/17 05:14:13;;;;;;;0.28;0.13;;;26.30;87.70;;;;;;5032396;28;20041;-73
2022/04/17 05:16:41;;;;;;;0.13;0.10;;;26.20;86.60;;;;;;5035527;28;20052;-73
2022/04/17 05:19:27;;;;;;;1.15;0.20;;;26.10;87.80;;;;;;5035096;28;20025;-74
2022/04/17 05:21:59;;;;;;;1.80;0.17;;;26.10;87.40;;;;;;5033303;28;20144;-73
2022/04/17 05:24:27;;;;;;;0.20;0.20;;;26.00;86.30;;;;;;5032181;28;20022;-71
2022/04/17 05:26:54;;;;;;;0.30;0.20;;;25.70;87.00;;;;;;5038591;28;20036;-72
2022/04/17 05:29:21;;;;;;;0.20;0.20;;;25.80;87.50;;;;;;5032817;28;20041;-73
2022/04/17 05:31:49;;;;;;;0.15;0.13;;;25.80;88.30;;;;;;5031836;28;20030;-72
2022/04/17 05:34:16;;;;;;;0.28;0.10;;;25.90;88.00;;;;;;5033703;28;20025;-71
2022/04/17 05:36:43;;;;;;;0.20;0.13;;;26.10;88.70;;;;;;5032189;28;20099;-73
2022/04/17 05:39:11;;;;;;;0.32;0.32;;;26.30;88.50;;;;;;5031373;28;20033;-73
2022/04/17 05:41:39;;;;;;;0.20;0.10;;;26.30;88.30;;;;;;5030773;28;20036;-72
2022/04/17 05:44:08;;;;;;;0.45;0.20;;;26.20;88.00;;;;;;5031172;28;20025;-72
2022/04/17 05:46:36;;;;;;;0.57;0.57;;;26.20;87.30;;;;;;5032965;28;20061;-72
2022/04/17 05:49:06;;;;;;;2.67;0.28;;;26.10;87.10;;;;;;5030571;28;20385;-73
2022/04/17 05:51:35;;;;;;;0.20;0.15;;;26.00;88.10;;;;;;5031304;28;20031;-72
2022/04/17 05:54:07;;;;;;;1.27;0.77;;;25.90;86.90;;;;;;5038289;28;20033;-72
2022/04/17 05:56:38;;;;;;;0.60;0.10;;;25.90;87.50;;;;;;5036150;28;20857;-72
2022/04/17 05:59:08;;;;;;;0.10;0.10;;;25.80;87.90;;;;;;5034040;28;20033;-73
2022/04/17 06:01:36;;;;;;;0.20;0.10;;;25.80;88.30;;;;;;5035739;28;20515;-72
2022/04/17 06:04:03;;;;;;;0.22;0.15;;;25.80;87.90;;;;;;5038069;28;20029;-74
2022/04/17 06:06:30;;;;;;;0.43;0.17;;;26.00;87.70;;;;;;5034862;28;20037;-74
2022/04/17 06:08:58;;;;;;;0.75;0.43;;;26.00;87.60;;;;;;5032376;28;20515;-71
2022/04/17 06:11:25;;;;;;;0.30;0.10;;;26.00;86.60;;;;;;5041714;28;20029;-71
2022/04/17 06:13:52;;;;;;;0.17;0.15;;;25.70;89.60;;;;;;5035575;28;20024;-72
2022/04/17 06:16:20;;;;;;;3.30;1.08;;;25.60;88.00;;;;;;5035807;28;20025;-72
2022/04/17 06:18:47;;;;;;;0.85;0.20;;;25.60;88.50;;;;;;5036490;28;20033;-71
2022/04/17 06:21:15;;;;;;;2.30;0.52;;;25.60;88.30;;;;;;5037029;28;20029;-73
2022/04/17 06:23:42;;;;;;;1.08;0.20;;;25.70;88.00;;;;;;5036546;28;20030;-72
2022/04/17 06:26:09;;;;;;;0.28;0.20;;;25.70;86.80;;;;;;5038194;28;20033;-72
2022/04/17 06:28:38;;;;;;;0.20;0.20;;;25.60;87.40;;;;;;5037036;28;20048;-72
2022/04/17 06:31:07;;;;;;;0.28;0.10;;;25.50;88.60;;;;;;5036794;28;20430;-72
2022/04/17 06:33:35;;;;;;;0.43;0.10;;;25.30;88.70;;;;;;5044934;28;20033;-73
2022/04/17 06:36:02;;;;;;;0.73;0.38;;;25.30;87.50;;;;;;5046470;28;20025;-72
2022/04/17 06:38:29;;;;;;;2.17;0.20;;;25.10;88.80;;;;;;5033711;28;20410;-73
2022/04/17 06:40:57;;;;;;;1.88;0.68;;;25.00;89.30;;;;;;5037308;28;20096;-74
2022/04/17 06:43:24;;;;;;;0.93;0.28;;;25.00;89.40;;;;;;5037094;28;20083;-73
2022/04/17 06:45:51;;;;;;;0.30;0.20;;;24.90;90.10;;;;;;5036341;28;20037;-73
2022/04/17 06:48:23;;;;;;;0.68;0.10;;;24.80;90.30;;;;;;5035187;28;20042;-72
2022/04/17 06:50:53;;;;;;;0.57;0.28;;;24.70;90.30;;;;;;5039607;28;20025;-72
2022/04/17 06:53:21;;;;;;;0.80;0.20;;;24.60;90.40;;;;;;5036399;28;20025;-74
2022/04/17 06:55:49;;;;;;;2.47;0.20;;;24.50;90.50;;;;;;5039667;28;20136;-73
2022/04/17 06:58:20;;;;;;;0.15;0.10;;;24.50;90.30;;;;;;5042428;28;20029;-73
2022/04/17 07:00:48;;;;;;;0.20;0.15;;;24.40;90.30;;;;;;5034218;28;20037;-74
2022/04/17 07:03:16;;;;;;;0.65;0.28;;;24.30;90.40;;;;;;5033697;28;20072;-75
2022/04/17 07:05:44;;;;;;;0.30;0.30;;;24.20;90.60;;;;;;5034528;28;20270;-73
2022/04/17 07:08:12;;;;;;;0.57;0.10;;;24.10;90.90;;;;;;5035448;28;20064;-72
2022/04/17 07:10:40;;;;;;;0.77;0.40;;;24.00;91.10;;;;;;5035106;28;20021;-73
2022/04/17 07:13:15;;;;;;;0.50;0.30;;;23.90;91.00;;;;;;5034868;28;20140;-73
2022/04/17 07:15:42;;;;;;;0.68;0.32;;;23.70;91.30;;;;;;5035048;28;20037;-74
2022/04/17 07:18:10;;;;;;;2.53;0.70;;;23.60;91.30;;;;;;5034473;28;20122;-72
2022/04/17 07:20:37;;;;;;;0.73;0.45;;;23.50;92.20;;;;;;5039689;28;20040;-72
2022/04/17 07:23:06;;;;;;;1.90;0.85;;;23.40;93.90;;;;;;5048953;28;20044;-71
2022/04/17 07:25:33;;;;;;;0.95;0.55;;;23.30;95.20;;;;;;5054446;28;20116;-72
2022/04/17 07:28:01;;;;;;;2.05;0.65;;;23.20;96.30;;;;;;5049917;28;20052;-72
2022/04/17 07:30:35;;;;;;;0.57;0.40;;;23.00;97.00;;;;;;5043107;28;20036;-73
2022/04/17 07:33:02;;;;;;;2.28;0.52;;;22.90;97.40;;;;;;5046961;28;20028;-72
2022/04/17 07:35:31;;;;;;;1.75;0.52;;;22.70;97.80;;;;;;5048537;28;20073;-71
2022/04/17 07:38:00;;;;;;;1.73;0.75;;;22.60;98.10;;;;;;5039789;28;20049;-72
2022/04/17 07:40:33;;;;;;;1.60;0.50;;;22.60;98.40;;;;;;5039486;28;20043;-72
2022/04/17 07:43:02;;;;;;;2.88;0.68;;;22.50;98.50;;;;;;5045136;28;20123;-72
2022/04/17 07:45:31;;;;;;;1.90;0.82;;;22.40;98.80;;;;;;5045523;28;20060;-74
2022/04/17 07:47:59;;;;;;;0.85;0.50;;;22.40;98.90;;;;;;5045988;28;20037;-73
2022/04/17 07:50:28;;;;;;;2.30;0.65;;;22.40;99.10;;;;;;5047867;28;20455;-72
2022/04/17 07:52:55;;;;;;;2.67;0.80;;;22.30;99.60;;;;;;5042453;28;20036;-74
2022/04/17 07:55:23;;;;;;;2.47;0.80;;;22.30;99.80;;;;;;5051343;28;20029;-74
2022/04/17 08:01:17;;;;;;;4.90;0.80;;;22.20;99.90;;;;;;5037430;28;20029;-72
2022/04/17 08:03:37;;;;;;;1.15;0.47;;;22.00;99.90;;;;;;5030215;28;20045;-72
2022/04/17 08:06:05;;;;;;;3.70;0.70;;;22.00;99.90;;;;;;5031425;28;20029;-71
2022/04/17 08:08:34;;;;;;;2.05;0.50;;;21.90;99.90;;;;;;5047457;28;20037;-71
2022/04/17 08:11:02;;;;;;;1.05;0.43;;;21.90;99.90;;;;;;5040511;28;20079;-71
2022/04/17 08:13:29;;;;;;;2.15;0.68;;;21.90;99.90;;;;;;5034049;28;20099;-73
2022/04/17 08:15:57;;;;;;;3.10;0.95;;;21.80;99.90;;;;;;5039412;28;20021;-72
2022/04/17 08:18:24;;;;;;;1.45;0.35;;;21.80;99.90;;;;;;5046714;28;20669;-72
2022/04/17 08:20:51;;;;;;;2.30;0.43;;;21.80;99.90;;;;;;5049863;28;20060;-71
2022/04/17 08:23:19;;;;;;;1.67;0.93;;;21.80;99.90;;;;;;5035212;28;20040;-72
2022/04/17 08:25:50;;;;;;;1.73;0.40;;;21.80;99.90;;;;;;5047843;28;20052;-73
2022/04/17 08:28:17;;;;;;;2.17;0.90;;;21.90;99.90;;;;;;5040596;28;20041;-71
2022/04/17 08:30:45;;;;;;;2.30;0.60;;;21.80;99.90;;;;;;5041577;28;20032;-72
2022/04/17 08:33:12;;;;;;;1.80;0.82;;;21.70;99.90;;;;;;5049364;28;20060;-72
2022/04/17 08:35:39;;;;;;;4.53;1.20;;;21.60;99.90;;;;;;5045048;28;20028;-71
2022/04/17 08:38:07;;;;;;;2.97;0.80;;;21.50;99.90;;;;;;5037438;28;20041;-70
2022/04/17 08:40:34;;;;;;;2.10;0.60;;;21.40;99.90;;;;;;5054621;28;20422;-69
2022/04/17 08:43:02;;;;;;;3.63;1.15;;;21.30;99.90;;;;;;5034562;28;20480;-71
2022/04/17 08:45:30;;;;;;;2.65;0.88;;;21.30;99.90;;;;;;5043964;28;20049;-71
2022/04/17 08:48:01;;;;;;;4.25;1.15;;;21.20;99.90;;;;;;5048605;28;20041;-70
2022/04/17 08:50:29;;;;;;;5.75;1.25;;;21.20;99.90;;;;;;5047432;28;20021;-70
2022/04/17 08:52:58;;;;;;;3.50;1.00;;;21.10;99.90;;;;;;5043955;28;20753;-71
2022/04/17 08:55:26;;;;;;;3.28;0.98;;;21.00;99.90;;;;;;5029933;28;20025;-71
2022/04/17 08:57:53;;;;;;;1.75;1.08;;;21.00;99.90;;;;;;5034123;28;20025;-71
2022/04/17 09:00:21;;;;;;;3.75;1.00;;;20.90;99.90;;;;;;5047692;28;20029;-72
2022/04/17 09:02:50;;;;;;;1.83;0.82;;;20.90;99.90;;;;;;5040780;28;20033;-71
2022/04/17 09:05:20;;;;;;;2.58;0.75;;;20.80;99.90;;;;;;5042581;28;20383;-71
2022/04/17 09:07:50;;;;;;;1.77;0.50;;;20.80;99.90;;;;;;5038978;28;20407;-72
2022/04/17 09:10:27;;;;;;;3.58;1.05;;;20.70;99.90;;;;;;5056888;28;20042;-72
2022/04/17 09:13:00;;;;;;;3.55;1.08;;;20.60;99.90;;;;;;5038512;28;20475;-72
2022/04/17 09:15:31;;;;;;;1.20;0.75;;;20.60;99.90;;;;;;5031109;28;20594;-72
2022/04/17 09:17:59;;;;;;;1.25;0.93;;;20.50;99.90;;;;;;5050306;28;20044;-69
2022/04/17 09:20:28;;;;;;;1.38;0.70;;;20.50;99.90;;;;;;5039195;28;20424;-71
2022/04/17 09:23:01;;;;;;;1.65;0.55;;;20.60;99.90;;;;;;5034488;28;20368;-70
2022/04/17 09:25:29;;;;;;;1.45;1.00;;;20.50;99.90;;;;;;5045872;28;20052;-70
2022/04/17 09:28:05;;;;;;;1.08;0.75;;;20.40;99.90;;;;;;5039131;28;20396;-69
2022/04/17 09:30:35;;;;;;;1.23;0.60;;;20.40;99.90;;;;;;5049232;28;20044;-72
2022/04/17 09:33:06;;;;;;;1.13;0.68;;;20.40;99.90;;;;;;5043191;28;20507;-71
2022/04/17 09:35:34;;;;;;;3.92;1.05;;;20.30;99.90;;;;;;5034704;28;20040;-72
2022/04/17 09:38:05;;;;;;;1.75;1.02;;;20.30;99.90;;;;;;5049575;28;20075;-72
2022/04/17 09:40:33;;;;;;;1.10;0.52;;;20.20;99.90;;;;;;5051815;28;20052;-72
2022/04/17 09:43:17;;;;;;;2.22;0.75;;;20.10;99.90;;;;;;5051296;28;20029;-73
2022/04/17 09:46:02;;;;;;;1.70;0.55;;;20.00;99.90;;;;;;5039106;28;20376;-71
2022/04/17 09:48:38;;;;;;;4.50;0.85;;;19.90;99.90;;;;;;5051529;28;20403;-72
2022/04/17 09:51:24;;;;;;;3.70;0.95;;;19.80;99.90;;;;;;5046896;28;20726;-71
2022/04/17 09:54:08;;;;;;;2.95;0.70;;;19.80;99.90;;;;;;5042340;28;20099;-70
2022/04/17 09:56:40;;;;;;;1.05;0.70;;;19.80;99.90;;;;;;5044474;28;20032;-72
2022/04/17 09:59:20;;;;;;;2.13;0.88;;;19.70;99.90;;;;;;5045568;28;20033;-71
2022/04/17 10:01:50;;;;;;;2.55;1.38;;;19.70;99.90;;;;;;5051194;28;20036;-72
2022/04/17 10:04:22;;;;;;;1.27;0.68;;;19.70;99.90;;;;;;5071188;28;20017;-71
2022/04/17 10:06:51;;;;;;;3.17;1.02;;;19.60;99.90;;;;;;5055378;28;20032;-71
2022/04/17 10:09:19;;;;;;;3.67;0.80;;;19.50;99.90;;;;;;5051889;28;20488;-71
2022/04/17 10:11:48;;;;;;;3.67;1.35;;;19.50;99.90;;;;;;5036435;28;21795;-71
2022/04/17 10:14:16;;;;;;;1.88;1.10;;;19.40;99.90;;;;;;5031982;28;20024;-72
2022/04/17 10:16:46;;;;;;;3.15;1.35;;;19.30;99.90;;;;;;5043960;28;20124;-72
2022/04/17 10:19:19;;;;;;;2.20;1.10;;;19.30;99.90;;;;;;5035115;28;21026;-71
2022/04/17 10:21:47;;;;;;;2.42;0.80;;;19.20;99.90;;;;;;5037259;28;20089;-72
2022/04/17 10:24:16;;;;;;;1.10;0.90;;;19.10;99.90;;;;;;5041197;28;20112;-72
2022/04/17 10:26:52;;;;;;;1.27;0.82;;;19.10;99.90;;;;;;5042995;28;20561;-71
2022/04/17 10:29:28;;;;;;;1.70;1.05;;;19.20;99.90;;;;;;5037233;28;20119;-71
2022/04/17 10:32:27;;;;;;;2.30;1.17;;;19.30;99.90;;;;;;5034297;28;20029;-72
2022/04/17 10:35:09;;;;;;;2.83;1.15;;;19.40;99.90;;;;;;5034364;28;20107;-72
2022/04/17 10:37:54;;;;;;;1.80;0.90;;;19.40;99.90;;;;;;5044421;28;20373;-72
2022/04/17 10:40:22;;;;;;;2.00;0.85;;;19.30;99.90;;;;;;5034716;28;20074;-74
2022/04/17 10:42:58;;;;;;;3.15;0.70;;;19.30;99.90;;;;;;5043842;28;20531;-71
2022/04/17 10:45:31;;;;;;;2.13;0.95;;;19.30;99.90;;;;;;5047425;28;20048;-72
2022/04/17 10:48:12;;;;;;;1.27;0.93;;;19.20;99.90;;;;;;5045038;28;20566;-72
2022/04/17 10:50:53;;;;;;;2.00;1.00;;;19.20;99.90;;;;;;5061839;28;20029;-71
2022/04/17 10:53:28;;;;;;;2.05;1.23;;;19.10;99.90;;;;;;5047202;28;20037;-71
2022/04/17 10:56:05;;;;;;;3.28;0.98;;;19.10;99.90;;;;;;5057467;28;20580;-71
2022/04/17 10:58:45;;;;;;;1.65;1.13;;;19.10;99.90;;;;;;5050260;28;20483;-73
2022/04/17 11:01:13;;;;;;;1.58;1.08;;;19.10;99.90;;;;;;5049458;28;20017;-73
2022/04/17 11:03:53;;;;;;;3.60;1.17;;;19.10;99.90;;;;;;5044937;28;20090;-72
2022/04/17 11:06:32;;;;;;;6.88;2.05;;;19.00;99.90;;;;;;5040168;28;20041;-71
2022/04/17 11:09:12;;;;;;;2.25;0.85;;;18.90;99.90;;;;;;5052618;28;20049;-72
2022/04/17 11:11:45;;;;;;;2.25;0.93;;;18.80;99.90;;;;;;5037309;28;20025;-72
2022/04/17 11:14:16;;;;;;;2.95;1.00;;;18.80;99.90;;;;;;5056424;28;20023;-71
2022/04/17 11:16:54;;;;;;;3.60;1.70;;;18.80;99.90;;;;;;5051579;28;20417;-73
2022/04/17 11:19:31;;;;;;;2.83;1.48;;;18.80;99.90;;;;;;5049834;28;20502;-73
2022/04/17 11:22:04;;;;;;;4.25;1.50;;;18.80;99.90;;;;;;5046283;28;20253;-73
2022/04/17 11:24:57;;;;;;;2.83;1.30;;;18.80;99.90;;;;;;5048421;28;20029;-72
2022/04/17 11:27:41;;;;;;;5.50;1.70;;;18.80;99.90;;;;;;5041760;28;20092;-67
2022/04/17 11:30:17;;;;;;;4.30;2.35;;;18.70;99.90;;;;;;5050208;28;20086;-71
2022/04/17 11:32:49;;;;;;;3.67;1.27;;;18.70;99.90;;;;;;5043612;28;20128;-72
2022/04/17 11:35:21;;;;;;;4.38;1.52;;;18.60;99.90;;;;;;5045550;28;20035;-73
2022/04/17 11:37:54;;;;;;;2.42;1.83;;;18.60;99.90;;;;;;5050076;28;20506;-72
2022/04/17 11:40:23;;;;;;;3.08;2.05;;;18.60;99.90;;;;;;5050174;28;20025;-74
2022/04/17 11:42:53;;;;;;;4.22;1.90;;;18.50;99.90;;;;;;5045820;28;20110;-72
2022/04/17 11:45:26;;;;;;;5.28;1.77;;;18.40;99.90;;;;;;5047176;28;20072;-72
2022/04/17 11:47:55;;;;;;;2.53;1.55;;;18.30;99.90;;;;;;5047708;28;20398;-72
2022/04/17 11:50:27;;;;;;;2.83;1.40;;;18.30;99.90;;;;;;5048925;28;20490;-72
2022/04/17 11:53:00;;;;;;;1.85;1.20;;;18.30;99.90;;;;;;5046598;28;20098;-72
2022/04/17 11:55:40;;;;;;;4.18;2.58;;;18.20;99.90;;;;;;5047503;28;20033;-72
2022/04/17 11:58:11;;;;;;;4.43;2.17;;;18.20;99.90;;;;;;5033642;28;20360;-73
2022/04/17 12:00:39;;;;;;;3.33;2.33;;;18.10;99.90;;;;;;5034199;28;20021;-73
2022/04/17 12:03:07;;;;;;;4.68;2.53;;;18.10;99.90;;;;;;5032180;28;20120;-73
2022/04/17 12:05:37;;;;;;;2.53;1.20;;;18.10;99.90;;;;;;5034449;28;20383;-72
2022/04/17 12:08:09;;;;;;;2.17;1.42;;;18.10;99.90;;;;;;5031934;28;20191;-74
2022/04/17 12:10:38;;;;;;;3.28;1.70;;;18.00;99.90;;;;;;5031501;28;20034;-73
2022/04/17 12:13:17;;;;;;;2.72;1.20;;;17.90;99.90;;;;;;5032006;28;20673;-73
2022/04/17 12:15:47;;;;;;;3.03;2.00;;;17.90;99.90;;;;;;5032060;28;20083;-74
2022/04/17 12:18:19;;;;;;;3.50;2.38;;;17.90;99.90;;;;;;5031300;28;20045;-72
2022/04/17 12:20:55;;;;;;;3.33;2.50;;;17.90;99.90;;;;;;5030890;28;20783;-72
2022/04/17 12:23:24;;;;;;;2.70;1.30;;;17.80;99.90;;;;;;5028959;28;20037;-72
2022/04/17 12:25:52;;;;;;;2.03;1.77;;;17.80;99.90;;;;;;5054379;28;20029;-71
2022/04/17 12:28:21;;;;;;;6.75;2.50;;;17.80;99.90;;;;;;5045562;28;20064;-72
2022/04/17 12:30:49;;;;;;;4.22;2.03;;;17.70;99.90;;;;;;5044183;28;20021;-71
2022/04/17 12:33:30;;;;;;;2.58;2.10;;;17.70;99.90;;;;;;5044412;28;20031;-71
2022/04/17 12:36:12;;;;;;;3.20;1.90;;;17.70;99.90;;;;;;5048227;28;20082;-74
2022/04/17 12:38:43;;;;;;;5.63;2.00;;;17.60;99.90;;;;;;5046006;28;20028;-72
2022/04/17 12:41:26;;;;;;;3.53;1.90;;;17.40;99.90;;;;;;5049878;28;20089;-72
2022/04/17 12:43:54;;;;;;;8.75;2.53;;;17.40;99.90;;;;;;5040772;28;20020;-72
2022/04/17 12:46:32;;;;;;;2.90;2.00;;;17.30;99.90;;;;;;5044180;28;20053;-73
2022/04/17 12:49:05;;;;;;;2.97;2.17;;;17.20;99.90;;;;;;5045496;28;20060;-74
2022/04/17 12:51:33;;;;;;;4.75;2.00;;;17.10;99.90;;;;;;5042281;28;20021;-74
2022/04/17 12:54:02;;;;;;;4.10;2.15;;;17.10;99.90;;;;;;5037458;28;20037;-73
2022/04/17 12:56:29;;;;;;;2.75;1.50;;;17.00;99.90;;;;;;5048443;28;20028;-74
2022/04/17 12:58:59;;;;;;;4.15;1.95;;;16.90;99.90;;;;;;5044803;28;20028;-73
2022/04/17 13:01:33;;;;;;;2.22;1.63;;;16.90;99.90;;;;;;5051192;28;20071;-73
2022/04/17 13:04:19;;;;;;;3.25;2.25;;;16.80;99.90;;;;;;5049473;28;20048;-72
2022/04/17 13:07:05;;;;;;;3.63;1.98;;;16.80;99.90;;;;;;5048525;28;20033;-73
2022/04/17 13:09:32;;;;;;;;;;;16.70;99.90;;;;;;5048003;28;20732;-73
2022/04/17 13:11:59;;;;;;;5.95;2.08;;;16.70;99.90;;;;;;5039401;28;19912;-73
2022/04/17 13:14:27;;;;;;;2.95;1.92;;;16.70;99.90;;;;;;5040758;28;20582;-75
2022/04/17 13:17:00;;;;;;;3.97;2.63;;;16.60;99.90;;;;;;5044990;28;20029;-77
2022/04/17 13:19:29;;;;;;;5.93;1.75;;;16.60;99.90;;;;;;5046845;28;20025;-74